sensor_id;sensor_type;location;lat;lon;timestamp;P1;durP1;ratioP1;P2;durP2;ratioP2
64667;SDS011;51077;42.716;23.344;2023-06-14T00:00:13;6.77;;;4.23;;
64667;SDS011;51077;42.716;23.344;2023-06-14T00:02:39;8.35;;;4.68;;
64667;SDS011;51077;42.716;23.344;2023-06-14T00:05:06;5.72;;;4.00;;
64667;SDS011;51077;42.716;23.344;2023-06-14T00:07:36;5.57;;;4.03;;
64667;SDS011;51077;42.716;23.344;2023-06-14T00:10:07;7.57;;;3.63;;
64667;SDS011;51077;42.716;23.344;2023-06-14T00:12:33;7.70;;;4.38;;
64667;SDS011;51077;42.716;23.344;2023-06-14T00:14:59;6.43;;;3.90;;
64667;SDS011;51077;42.716;23.344;2023-06-14T00:17:26;6.32;;;4.38;;
64667;SDS011;51077;42.716;23.344;2023-06-14T00:19:55;7.13;;;4.15;;
64667;SDS011;51077;42.716;23.344;2023-06-14T00:22:21;6.85;;;3.40;;
64667;SDS011;51077;42.716;23.344;2023-06-14T00:24:49;7.13;;;3.70;;
64667;SDS011;51077;42.716;23.344;2023-06-14T00:27:15;6.55;;;3.83;;
64667;SDS011;51077;42.716;23.344;2023-06-14T00:29:40;5.70;;;3.43;;
64667;SDS011;51077;42.716;23.344;2023-06-14T00:32:06;4.00;;;3.23;;
64667;SDS011;51077;42.716;23.344;2023-06-14T00:34:32;6.90;;;3.47;;
64667;SDS011;51077;42.716;23.344;2023-06-14T00:36:58;4.60;;;3.50;;
64667;SDS011;51077;42.716;23.344;2023-06-14T00:39:23;8.00;;;3.83;;
64667;SDS011;51077;42.716;23.344;2023-06-14T00:41:48;4.13;;;2.87;;
64667;SDS011;51077;42.716;23.344;2023-06-14T00:44:14;4.80;;;3.77;;
64667;SDS011;51077;42.716;23.344;2023-06-14T00:46:41;6.10;;;3.83;;
64667;SDS011;51077;42.716;23.344;2023-06-14T00:49:07;5.88;;;4.25;;
64667;SDS011;51077;42.716;23.344;2023-06-14T00:51:33;6.80;;;4.00;;
64667;SDS011;51077;42.716;23.344;2023-06-14T00:53:59;7.90;;;3.73;;
64667;SDS011;51077;42.716;23.344;2023-06-14T00:56:25;5.95;;;3.53;;
64667;SDS011;51077;42.716;23.344;2023-06-14T00:58:52;4.65;;;3.58;;
64667;SDS011;51077;42.716;23.344;2023-06-14T01:01:18;7.13;;;3.67;;
64667;SDS011;51077;42.716;23.344;2023-06-14T01:03:43;7.80;;;3.50;;
64667;SDS011;51077;42.716;23.344;2023-06-14T01:15:00;6.50;;;3.85;;
64667;SDS011;51077;42.716;23.344;2023-06-14T01:17:27;5.55;;;3.10;;
64667;SDS011;51077;42.716;23.344;2023-06-14T01:19:57;5.82;;;3.47;;
64667;SDS011;51077;42.716;23.344;2023-06-14T01:22:28;4.93;;;3.75;;
64667;SDS011;51077;42.716;23.344;2023-06-14T01:24:53;5.30;;;3.35;;
64667;SDS011;51077;42.716;23.344;2023-06-14T01:27:22;5.45;;;3.70;;
64667;SDS011;51077;42.716;23.344;2023-06-14T01:29:50;6.53;;;3.53;;
64667;SDS011;51077;42.716;23.344;2023-06-14T01:32:21;4.95;;;3.53;;
64667;SDS011;51077;42.716;23.344;2023-06-14T01:34:49;7.13;;;3.90;;
64667;SDS011;51077;42.716;23.344;2023-06-14T01:37:15;5.13;;;3.57;;
64667;SDS011;51077;42.716;23.344;2023-06-14T01:39:42;4.63;;;3.47;;
64667;SDS011;51077;42.716;23.344;2023-06-14T01:42:08;6.05;;;3.30;;
64667;SDS011;51077;42.716;23.344;2023-06-14T01:44:35;4.80;;;3.50;;
64667;SDS011;51077;42.716;23.344;2023-06-14T01:47:02;7.78;;;3.65;;
64667;SDS011;51077;42.716;23.344;2023-06-14T01:49:27;6.77;;;3.57;;
64667;SDS011;51077;42.716;23.344;2023-06-14T01:51:53;4.37;;;3.13;;
64667;SDS011;51077;42.716;23.344;2023-06-14T01:54:18;5.00;;;4.00;;
64667;SDS011;51077;42.716;23.344;2023-06-14T01:56:44;4.23;;;3.70;;
64667;SDS011;51077;42.716;23.344;2023-06-14T01:59:10;6.23;;;3.77;;
64667;SDS011;51077;42.716;23.344;2023-06-14T02:01:35;5.90;;;3.60;;
64667;SDS011;51077;42.716;23.344;2023-06-14T02:04:01;6.05;;;4.07;;
64667;SDS011;51077;42.716;23.344;2023-06-14T02:06:27;4.93;;;3.83;;
64667;SDS011;51077;42.716;23.344;2023-06-14T02:08:53;5.70;;;3.97;;
64667;SDS011;51077;42.716;23.344;2023-06-14T02:11:18;5.43;;;3.40;;
64667;SDS011;51077;42.716;23.344;2023-06-14T02:13:44;5.73;;;3.83;;
64667;SDS011;51077;42.716;23.344;2023-06-14T02:16:09;5.20;;;3.60;;
64667;SDS011;51077;42.716;23.344;2023-06-14T02:18:35;5.57;;;3.70;;
64667;SDS011;51077;42.716;23.344;2023-06-14T02:21:01;5.50;;;3.85;;
64667;SDS011;51077;42.716;23.344;2023-06-14T02:23:26;6.77;;;3.47;;
64667;SDS011;51077;42.716;23.344;2023-06-14T02:25:52;8.97;;;3.63;;
64667;SDS011;51077;42.716;23.344;2023-06-14T02:28:17;5.63;;;4.03;;
64667;SDS011;51077;42.716;23.344;2023-06-14T02:30:43;5.10;;;3.77;;
64667;SDS011;51077;42.716;23.344;2023-06-14T02:33:08;5.37;;;3.47;;
64667;SDS011;51077;42.716;23.344;2023-06-14T02:35:38;5.03;;;3.38;;
64667;SDS011;51077;42.716;23.344;2023-06-14T02:38:03;4.47;;;3.20;;
64667;SDS011;51077;42.716;23.344;2023-06-14T02:40:29;6.57;;;3.77;;
64667;SDS011;51077;42.716;23.344;2023-06-14T02:42:54;5.00;;;3.47;;
64667;SDS011;51077;42.716;23.344;2023-06-14T02:45:19;7.17;;;4.20;;
64667;SDS011;51077;42.716;23.344;2023-06-14T02:47:46;5.72;;;3.38;;
64667;SDS011;51077;42.716;23.344;2023-06-14T02:50:11;6.00;;;4.07;;
64667;SDS011;51077;42.716;23.344;2023-06-14T02:52:36;4.70;;;3.80;;
64667;SDS011;51077;42.716;23.344;2023-06-14T02:55:03;4.72;;;3.72;;
64667;SDS011;51077;42.716;23.344;2023-06-14T02:57:28;5.68;;;3.67;;
64667;SDS011;51077;42.716;23.344;2023-06-14T02:59:54;10.47;;;4.03;;
64667;SDS011;51077;42.716;23.344;2023-06-14T03:02:20;6.40;;;4.20;;
64667;SDS011;51077;42.716;23.344;2023-06-14T03:04:45;5.90;;;4.13;;
64667;SDS011;51077;42.716;23.344;2023-06-14T03:07:11;5.80;;;4.38;;
64667;SDS011;51077;42.716;23.344;2023-06-14T03:09:38;7.18;;;4.30;;
64667;SDS011;51077;42.716;23.344;2023-06-14T03:12:05;5.22;;;4.50;;
64667;SDS011;51077;42.716;23.344;2023-06-14T03:14:34;6.78;;;4.93;;
64667;SDS011;51077;42.716;23.344;2023-06-14T03:17:00;7.13;;;4.30;;
64667;SDS011;51077;42.716;23.344;2023-06-14T03:19:25;6.67;;;5.40;;
64667;SDS011;51077;42.716;23.344;2023-06-14T03:21:51;7.63;;;5.37;;
64667;SDS011;51077;42.716;23.344;2023-06-14T03:24:18;6.53;;;5.32;;
64667;SDS011;51077;42.716;23.344;2023-06-14T03:26:44;8.85;;;5.57;;
64667;SDS011;51077;42.716;23.344;2023-06-14T03:29:10;7.22;;;5.22;;
64667;SDS011;51077;42.716;23.344;2023-06-14T03:31:36;7.67;;;5.47;;
64667;SDS011;51077;42.716;23.344;2023-06-14T03:34:01;8.17;;;5.73;;
64667;SDS011;51077;42.716;23.344;2023-06-14T03:36:27;9.48;;;4.78;;
64667;SDS011;51077;42.716;23.344;2023-06-14T03:38:53;9.23;;;5.43;;
64667;SDS011;51077;42.716;23.344;2023-06-14T03:41:19;5.40;;;4.50;;
64667;SDS011;51077;42.716;23.344;2023-06-14T03:43:44;7.50;;;5.30;;
64667;SDS011;51077;42.716;23.344;2023-06-14T03:46:10;9.00;;;4.83;;
64667;SDS011;51077;42.716;23.344;2023-06-14T03:48:35;6.37;;;4.80;;
64667;SDS011;51077;42.716;23.344;2023-06-14T03:51:01;6.63;;;4.93;;
64667;SDS011;51077;42.716;23.344;2023-06-14T03:53:27;9.60;;;5.10;;
64667;SDS011;51077;42.716;23.344;2023-06-14T03:55:54;5.82;;;4.78;;
64667;SDS011;51077;42.716;23.344;2023-06-14T03:58:19;8.70;;;5.00;;
64667;SDS011;51077;42.716;23.344;2023-06-14T04:00:45;7.43;;;4.33;;
64667;SDS011;51077;42.716;23.344;2023-06-14T04:03:10;6.03;;;4.13;;
64667;SDS011;51077;42.716;23.344;2023-06-14T04:05:38;6.93;;;4.65;;
64667;SDS011;51077;42.716;23.344;2023-06-14T04:08:07;6.70;;;4.40;;
64667;SDS011;51077;42.716;23.344;2023-06-14T04:10:34;7.60;;;4.93;;
64667;SDS011;51077;42.716;23.344;2023-06-14T04:13:00;8.00;;;4.13;;
64667;SDS011;51077;42.716;23.344;2023-06-14T04:15:25;13.20;;;5.53;;
64667;SDS011;51077;42.716;23.344;2023-06-14T04:17:53;7.32;;;4.28;;
64667;SDS011;51077;42.716;23.344;2023-06-14T04:20:22;6.05;;;4.07;;
64667;SDS011;51077;42.716;23.344;2023-06-14T04:22:49;9.43;;;4.45;;
64667;SDS011;51077;42.716;23.344;2023-06-14T04:25:14;5.73;;;4.10;;
64667;SDS011;51077;42.716;23.344;2023-06-14T04:27:40;7.60;;;4.63;;
64667;SDS011;51077;42.716;23.344;2023-06-14T04:30:06;6.45;;;3.95;;
64667;SDS011;51077;42.716;23.344;2023-06-14T04:32:32;5.13;;;4.07;;
64667;SDS011;51077;42.716;23.344;2023-06-14T04:35:06;7.03;;;4.18;;
64667;SDS011;51077;42.716;23.344;2023-06-14T04:37:33;7.53;;;4.32;;
64667;SDS011;51077;42.716;23.344;2023-06-14T04:39:59;5.80;;;3.90;;
64667;SDS011;51077;42.716;23.344;2023-06-14T04:42:25;5.93;;;3.80;;
64667;SDS011;51077;42.716;23.344;2023-06-14T04:44:56;6.65;;;4.18;;
64667;SDS011;51077;42.716;23.344;2023-06-14T04:47:22;8.63;;;4.43;;
64667;SDS011;51077;42.716;23.344;2023-06-14T04:49:49;7.55;;;4.60;;
64667;SDS011;51077;42.716;23.344;2023-06-14T04:52:18;6.85;;;4.05;;
64667;SDS011;51077;42.716;23.344;2023-06-14T04:54:46;5.32;;;4.40;;
64667;SDS011;51077;42.716;23.344;2023-06-14T04:57:11;7.43;;;4.40;;
64667;SDS011;51077;42.716;23.344;2023-06-14T04:59:38;6.55;;;3.83;;
64667;SDS011;51077;42.716;23.344;2023-06-14T05:02:04;8.67;;;4.40;;
64667;SDS011;51077;42.716;23.344;2023-06-14T05:04:31;6.35;;;4.28;;
64667;SDS011;51077;42.716;23.344;2023-06-14T05:06:57;8.47;;;4.63;;
64667;SDS011;51077;42.716;23.344;2023-06-14T05:09:22;6.23;;;3.83;;
64667;SDS011;51077;42.716;23.344;2023-06-14T05:11:48;7.77;;;5.10;;
64667;SDS011;51077;42.716;23.344;2023-06-14T05:14:13;7.23;;;4.20;;
64667;SDS011;51077;42.716;23.344;2023-06-14T05:16:39;6.03;;;4.25;;
64667;SDS011;51077;42.716;23.344;2023-06-14T05:19:06;5.65;;;4.00;;
64667;SDS011;51077;42.716;23.344;2023-06-14T05:21:32;6.93;;;4.25;;
64667;SDS011;51077;42.716;23.344;2023-06-14T05:23:59;7.70;;;4.82;;
64667;SDS011;51077;42.716;23.344;2023-06-14T05:26:25;6.05;;;4.40;;
64667;SDS011;51077;42.716;23.344;2023-06-14T05:28:55;6.28;;;3.97;;
64667;SDS011;51077;42.716;23.344;2023-06-14T05:31:26;6.03;;;4.13;;
64667;SDS011;51077;42.716;23.344;2023-06-14T05:33:52;7.67;;;4.60;;
64667;SDS011;51077;42.716;23.344;2023-06-14T05:36:18;5.72;;;4.28;;
64667;SDS011;51077;42.716;23.344;2023-06-14T05:38:44;5.85;;;4.40;;
64667;SDS011;51077;42.716;23.344;2023-06-14T05:41:10;8.35;;;4.78;;
64667;SDS011;51077;42.716;23.344;2023-06-14T05:43:36;7.30;;;4.70;;
64667;SDS011;51077;42.716;23.344;2023-06-14T05:46:01;9.73;;;4.83;;
64667;SDS011;51077;42.716;23.344;2023-06-14T05:48:26;8.20;;;4.73;;
64667;SDS011;51077;42.716;23.344;2023-06-14T05:50:52;7.10;;;4.53;;
64667;SDS011;51077;42.716;23.344;2023-06-14T05:53:17;8.73;;;4.77;;
64667;SDS011;51077;42.716;23.344;2023-06-14T05:55:43;6.30;;;4.47;;
64667;SDS011;51077;42.716;23.344;2023-06-14T05:58:08;6.90;;;5.00;;
64667;SDS011;51077;42.716;23.344;2023-06-14T06:00:35;8.00;;;4.57;;
64667;SDS011;51077;42.716;23.344;2023-06-14T06:03:01;6.23;;;5.00;;
64667;SDS011;51077;42.716;23.344;2023-06-14T06:05:27;7.50;;;4.95;;
64667;SDS011;51077;42.716;23.344;2023-06-14T06:07:53;6.63;;;4.93;;
64667;SDS011;51077;42.716;23.344;2023-06-14T06:10:18;6.60;;;5.33;;
64667;SDS011;51077;42.716;23.344;2023-06-14T06:12:44;11.63;;;6.53;;
64667;SDS011;51077;42.716;23.344;2023-06-14T06:15:12;7.07;;;6.13;;
64667;SDS011;51077;42.716;23.344;2023-06-14T06:17:38;7.80;;;6.13;;
64667;SDS011;51077;42.716;23.344;2023-06-14T06:20:04;9.00;;;7.00;;
64667;SDS011;51077;42.716;23.344;2023-06-14T06:22:33;7.95;;;6.60;;
64667;SDS011;51077;42.716;23.344;2023-06-14T06:24:58;10.07;;;7.63;;
64667;SDS011;51077;42.716;23.344;2023-06-14T06:27:24;9.30;;;6.80;;
64667;SDS011;51077;42.716;23.344;2023-06-14T06:29:49;8.97;;;7.70;;
64667;SDS011;51077;42.716;23.344;2023-06-14T06:32:16;8.73;;;7.82;;
64667;SDS011;51077;42.716;23.344;2023-06-14T06:34:42;8.40;;;7.50;;
64667;SDS011;51077;42.716;23.344;2023-06-14T06:37:07;11.17;;;8.23;;
64667;SDS011;51077;42.716;23.344;2023-06-14T06:39:33;9.87;;;7.90;;
64667;SDS011;51077;42.716;23.344;2023-06-14T06:41:58;9.17;;;7.37;;
64667;SDS011;51077;42.716;23.344;2023-06-14T06:44:24;11.53;;;8.50;;
64667;SDS011;51077;42.716;23.344;2023-06-14T06:46:49;9.53;;;8.23;;
64667;SDS011;51077;42.716;23.344;2023-06-14T06:49:15;9.53;;;8.00;;
64667;SDS011;51077;42.716;23.344;2023-06-14T06:51:41;11.30;;;7.57;;
64667;SDS011;51077;42.716;23.344;2023-06-14T06:54:07;11.23;;;7.72;;
64667;SDS011;51077;42.716;23.344;2023-06-14T06:56:33;11.67;;;8.57;;
64667;SDS011;51077;42.716;23.344;2023-06-14T06:58:59;12.50;;;8.73;;
64667;SDS011;51077;42.716;23.344;2023-06-14T07:01:25;15.17;;;9.53;;
64667;SDS011;51077;42.716;23.344;2023-06-14T07:03:51;9.83;;;8.57;;
64667;SDS011;51077;42.716;23.344;2023-06-14T07:06:16;15.40;;;9.13;;
64667;SDS011;51077;42.716;23.344;2023-06-14T07:08:43;13.55;;;9.10;;
64667;SDS011;51077;42.716;23.344;2023-06-14T07:11:09;9.87;;;8.63;;
64667;SDS011;51077;42.716;23.344;2023-06-14T07:13:34;10.60;;;8.37;;
64667;SDS011;51077;42.716;23.344;2023-06-14T07:16:00;10.00;;;8.43;;
64667;SDS011;51077;42.716;23.344;2023-06-14T07:18:26;8.43;;;7.53;;
64667;SDS011;51077;42.716;23.344;2023-06-14T07:20:52;13.27;;;9.30;;
64667;SDS011;51077;42.716;23.344;2023-06-14T07:23:19;10.57;;;8.57;;
64667;SDS011;51077;42.716;23.344;2023-06-14T07:25:45;10.57;;;8.60;;
64667;SDS011;51077;42.716;23.344;2023-06-14T07:28:10;10.27;;;8.77;;
64667;SDS011;51077;42.716;23.344;2023-06-14T07:30:36;8.93;;;7.70;;
64667;SDS011;51077;42.716;23.344;2023-06-14T07:33:01;12.20;;;8.53;;
64667;SDS011;51077;42.716;23.344;2023-06-14T07:35:27;11.10;;;7.83;;
64667;SDS011;51077;42.716;23.344;2023-06-14T07:37:52;12.87;;;8.10;;
64667;SDS011;51077;42.716;23.344;2023-06-14T07:40:17;10.33;;;7.80;;
64667;SDS011;51077;42.716;23.344;2023-06-14T07:42:43;14.33;;;8.03;;
64667;SDS011;51077;42.716;23.344;2023-06-14T07:45:09;9.07;;;7.55;;
64667;SDS011;51077;42.716;23.344;2023-06-14T07:47:35;9.93;;;7.17;;
64667;SDS011;51077;42.716;23.344;2023-06-14T07:50:00;15.33;;;6.83;;
64667;SDS011;51077;42.716;23.344;2023-06-14T07:52:26;10.27;;;7.77;;
64667;SDS011;51077;42.716;23.344;2023-06-14T07:54:51;10.07;;;6.87;;
64667;SDS011;51077;42.716;23.344;2023-06-14T07:57:17;8.00;;;6.80;;
64667;SDS011;51077;42.716;23.344;2023-06-14T07:59:45;9.48;;;6.40;;
64667;SDS011;51077;42.716;23.344;2023-06-14T08:02:10;8.10;;;6.30;;
64667;SDS011;51077;42.716;23.344;2023-06-14T08:04:35;9.57;;;6.50;;
64667;SDS011;51077;42.716;23.344;2023-06-14T08:07:01;8.87;;;6.37;;
64667;SDS011;51077;42.716;23.344;2023-06-14T08:09:27;7.30;;;5.73;;
64667;SDS011;51077;42.716;23.344;2023-06-14T08:11:54;7.30;;;6.10;;
64667;SDS011;51077;42.716;23.344;2023-06-14T08:14:19;6.27;;;5.67;;
64667;SDS011;51077;42.716;23.344;2023-06-14T08:16:45;6.30;;;5.60;;
64667;SDS011;51077;42.716;23.344;2023-06-14T08:19:10;7.20;;;5.77;;
64667;SDS011;51077;42.716;23.344;2023-06-14T08:21:36;7.03;;;6.17;;
64667;SDS011;51077;42.716;23.344;2023-06-14T08:24:01;8.70;;;6.47;;
64667;SDS011;51077;42.716;23.344;2023-06-14T08:26:27;6.13;;;5.53;;
64667;SDS011;51077;42.716;23.344;2023-06-14T08:28:54;9.50;;;6.75;;
64667;SDS011;51077;42.716;23.344;2023-06-14T08:31:20;6.88;;;5.78;;
64667;SDS011;51077;42.716;23.344;2023-06-14T08:33:45;8.73;;;5.67;;
64667;SDS011;51077;42.716;23.344;2023-06-14T08:36:11;7.63;;;5.77;;
64667;SDS011;51077;42.716;23.344;2023-06-14T08:38:37;7.43;;;5.43;;
64667;SDS011;51077;42.716;23.344;2023-06-14T08:41:02;7.50;;;5.30;;
64667;SDS011;51077;42.716;23.344;2023-06-14T08:43:30;8.25;;;6.00;;
64667;SDS011;51077;42.716;23.344;2023-06-14T08:46:00;8.13;;;5.90;;
64667;SDS011;51077;42.716;23.344;2023-06-14T08:48:28;6.20;;;5.60;;
64667;SDS011;51077;42.716;23.344;2023-06-14T08:50:56;6.47;;;5.23;;
64667;SDS011;51077;42.716;23.344;2023-06-14T08:53:27;6.63;;;5.63;;
64667;SDS011;51077;42.716;23.344;2023-06-14T08:55:56;6.25;;;5.45;;
64667;SDS011;51077;42.716;23.344;2023-06-14T08:58:25;7.70;;;6.15;;
64667;SDS011;51077;42.716;23.344;2023-06-14T09:00:51;4.83;;;4.33;;
64667;SDS011;51077;42.716;23.344;2023-06-14T09:03:17;5.38;;;4.70;;
64667;SDS011;51077;42.716;23.344;2023-06-14T09:05:45;5.57;;;4.82;;
64667;SDS011;51077;42.716;23.344;2023-06-14T09:08:12;5.97;;;4.43;;
64667;SDS011;51077;42.716;23.344;2023-06-14T09:10:37;5.70;;;4.70;;
64667;SDS011;51077;42.716;23.344;2023-06-14T09:13:05;6.95;;;4.97;;
64667;SDS011;51077;42.716;23.344;2023-06-14T09:15:31;6.88;;;5.47;;
64667;SDS011;51077;42.716;23.344;2023-06-14T09:17:57;6.30;;;5.37;;
64667;SDS011;51077;42.716;23.344;2023-06-14T09:20:23;7.17;;;5.30;;
64667;SDS011;51077;42.716;23.344;2023-06-14T09:22:49;5.90;;;4.97;;
64667;SDS011;51077;42.716;23.344;2023-06-14T09:25:15;7.00;;;5.57;;
64667;SDS011;51077;42.716;23.344;2023-06-14T09:27:41;6.57;;;4.90;;
64667;SDS011;51077;42.716;23.344;2023-06-14T09:30:08;6.33;;;5.73;;
64667;SDS011;51077;42.716;23.344;2023-06-14T09:32:38;6.60;;;5.90;;
64667;SDS011;51077;42.716;23.344;2023-06-14T09:35:07;8.10;;;4.93;;
64667;SDS011;51077;42.716;23.344;2023-06-14T09:37:34;6.90;;;5.27;;
64667;SDS011;51077;42.716;23.344;2023-06-14T09:40:00;5.80;;;5.20;;
64667;SDS011;51077;42.716;23.344;2023-06-14T09:42:26;5.97;;;4.77;;
64667;SDS011;51077;42.716;23.344;2023-06-14T09:44:53;9.43;;;5.70;;
64667;SDS011;51077;42.716;23.344;2023-06-14T09:47:20;7.70;;;5.30;;
64667;SDS011;51077;42.716;23.344;2023-06-14T09:49:47;9.27;;;5.40;;
64667;SDS011;51077;42.716;23.344;2023-06-14T09:52:22;7.33;;;5.50;;
64667;SDS011;51077;42.716;23.344;2023-06-14T09:54:49;7.07;;;5.33;;
64667;SDS011;51077;42.716;23.344;2023-06-14T09:57:16;5.77;;;5.00;;
64667;SDS011;51077;42.716;23.344;2023-06-14T09:59:45;9.37;;;4.90;;
64667;SDS011;51077;42.716;23.344;2023-06-14T10:02:23;5.97;;;5.37;;
64667;SDS011;51077;42.716;23.344;2023-06-14T10:05:04;6.47;;;5.10;;
64667;SDS011;51077;42.716;23.344;2023-06-14T10:07:35;5.67;;;5.07;;
64667;SDS011;51077;42.716;23.344;2023-06-14T10:10:13;5.07;;;4.23;;
64667;SDS011;51077;42.716;23.344;2023-06-14T10:12:39;6.63;;;5.00;;
64667;SDS011;51077;42.716;23.344;2023-06-14T10:15:05;5.30;;;4.80;;
64667;SDS011;51077;42.716;23.344;2023-06-14T10:17:42;5.83;;;4.90;;
64667;SDS011;51077;42.716;23.344;2023-06-14T10:23:10;5.40;;;4.90;;
64667;SDS011;51077;42.716;23.344;2023-06-14T10:25:40;6.40;;;5.07;;
64667;SDS011;51077;42.716;23.344;2023-06-14T10:38:47;6.73;;;5.63;;
64667;SDS011;51077;42.716;23.344;2023-06-14T10:41:22;6.57;;;5.97;;
64667;SDS011;51077;42.716;23.344;2023-06-14T10:43:48;6.33;;;5.53;;
64667;SDS011;51077;42.716;23.344;2023-06-14T10:46:14;6.40;;;5.80;;
64667;SDS011;51077;42.716;23.344;2023-06-14T10:48:41;4.90;;;4.40;;
64667;SDS011;51077;42.716;23.344;2023-06-14T10:51:13;6.10;;;5.23;;
64667;SDS011;51077;42.716;23.344;2023-06-14T10:53:45;6.00;;;5.40;;
64667;SDS011;51077;42.716;23.344;2023-06-14T10:56:22;8.97;;;4.80;;
64667;SDS011;51077;42.716;23.344;2023-06-14T11:01:32;6.27;;;5.13;;
64667;SDS011;51077;42.716;23.344;2023-06-14T11:04:11;5.95;;;5.38;;
64667;SDS011;51077;42.716;23.344;2023-06-14T11:07:20;5.03;;;4.53;;
64667;SDS011;51077;42.716;23.344;2023-06-14T11:12:35;7.80;;;5.13;;
64667;SDS011;51077;42.716;23.344;2023-06-14T11:15:02;5.50;;;4.90;;
64667;SDS011;51077;42.716;23.344;2023-06-14T11:17:27;6.83;;;4.63;;
64667;SDS011;51077;42.716;23.344;2023-06-14T11:20:10;5.90;;;4.67;;
64667;SDS011;51077;42.716;23.344;2023-06-14T11:22:44;5.40;;;4.60;;
64667;SDS011;51077;42.716;23.344;2023-06-14T11:25:14;5.63;;;4.63;;
64667;SDS011;51077;42.716;23.344;2023-06-14T11:27:42;8.70;;;4.67;;
64667;SDS011;51077;42.716;23.344;2023-06-14T11:30:08;6.87;;;4.50;;
64667;SDS011;51077;42.716;23.344;2023-06-14T11:32:37;4.97;;;4.47;;
64667;SDS011;51077;42.716;23.344;2023-06-14T11:35:03;6.30;;;4.73;;
64667;SDS011;51077;42.716;23.344;2023-06-14T11:37:30;6.97;;;5.00;;
64667;SDS011;51077;42.716;23.344;2023-06-14T11:40:03;5.37;;;4.87;;
64667;SDS011;51077;42.716;23.344;2023-06-14T11:42:33;6.40;;;4.37;;
64667;SDS011;51077;42.716;23.344;2023-06-14T11:44:59;8.10;;;4.27;;
64667;SDS011;51077;42.716;23.344;2023-06-14T11:47:24;5.00;;;4.20;;
64667;SDS011;51077;42.716;23.344;2023-06-14T11:49:56;5.20;;;4.70;;
64667;SDS011;51077;42.716;23.344;2023-06-14T11:52:23;6.20;;;4.50;;
64667;SDS011;51077;42.716;23.344;2023-06-14T11:54:49;4.70;;;4.13;;
64667;SDS011;51077;42.716;23.344;2023-06-14T11:57:14;6.23;;;4.60;;
64667;SDS011;51077;42.716;23.344;2023-06-14T11:59:40;5.33;;;4.20;;
64667;SDS011;51077;42.716;23.344;2023-06-14T12:02:06;5.17;;;4.67;;
64667;SDS011;51077;42.716;23.344;2023-06-14T12:04:32;5.57;;;4.50;;
64667;SDS011;51077;42.716;23.344;2023-06-14T12:07:08;6.37;;;4.53;;
64667;SDS011;51077;42.716;23.344;2023-06-14T12:12:24;6.45;;;4.78;;
64667;SDS011;51077;42.716;23.344;2023-06-14T12:14:50;5.03;;;4.53;;
64667;SDS011;51077;42.716;23.344;2023-06-14T12:17:16;5.90;;;3.93;;
64667;SDS011;51077;42.716;23.344;2023-06-14T12:19:42;5.27;;;4.57;;
64667;SDS011;51077;42.716;23.344;2023-06-14T12:22:12;5.60;;;4.43;;
64667;SDS011;51077;42.716;23.344;2023-06-14T12:24:39;5.13;;;4.40;;
64667;SDS011;51077;42.716;23.344;2023-06-14T12:27:07;5.10;;;4.60;;
64667;SDS011;51077;42.716;23.344;2023-06-14T12:29:33;6.77;;;4.80;;
64667;SDS011;51077;42.716;23.344;2023-06-14T12:31:58;4.90;;;4.23;;
64667;SDS011;51077;42.716;23.344;2023-06-14T12:34:24;5.70;;;4.30;;
64667;SDS011;51077;42.716;23.344;2023-06-14T12:36:50;4.67;;;4.03;;
64667;SDS011;51077;42.716;23.344;2023-06-14T12:39:16;4.40;;;4.00;;
64667;SDS011;51077;42.716;23.344;2023-06-14T12:41:41;5.90;;;4.60;;
64667;SDS011;51077;42.716;23.344;2023-06-14T12:44:07;7.77;;;4.23;;
64667;SDS011;51077;42.716;23.344;2023-06-14T12:46:32;7.57;;;5.23;;
64667;SDS011;51077;42.716;23.344;2023-06-14T12:48:58;5.70;;;4.17;;
64667;SDS011;51077;42.716;23.344;2023-06-14T12:51:24;4.87;;;4.37;;
64667;SDS011;51077;42.716;23.344;2023-06-14T12:53:50;4.83;;;3.90;;
64667;SDS011;51077;42.716;23.344;2023-06-14T12:56:16;6.27;;;4.10;;
64667;SDS011;51077;42.716;23.344;2023-06-14T12:58:41;6.53;;;3.77;;
64667;SDS011;51077;42.716;23.344;2023-06-14T13:01:07;4.27;;;3.63;;
64667;SDS011;51077;42.716;23.344;2023-06-14T13:03:33;5.77;;;3.80;;
64667;SDS011;51077;42.716;23.344;2023-06-14T13:05:59;5.20;;;3.70;;
64667;SDS011;51077;42.716;23.344;2023-06-14T13:08:25;4.43;;;3.47;;
64667;SDS011;51077;42.716;23.344;2023-06-14T13:10:51;4.50;;;3.90;;
64667;SDS011;51077;42.716;23.344;2023-06-14T13:13:16;4.07;;;3.30;;
64667;SDS011;51077;42.716;23.344;2023-06-14T13:15:42;6.90;;;3.33;;
64667;SDS011;51077;42.716;23.344;2023-06-14T13:18:08;5.03;;;3.60;;
64667;SDS011;51077;42.716;23.344;2023-06-14T13:20:34;5.23;;;3.77;;
64667;SDS011;51077;42.716;23.344;2023-06-14T13:22:59;4.90;;;3.30;;
64667;SDS011;51077;42.716;23.344;2023-06-14T13:25:24;4.07;;;3.50;;
64667;SDS011;51077;42.716;23.344;2023-06-14T13:27:50;4.80;;;4.03;;
64667;SDS011;51077;42.716;23.344;2023-06-14T13:30:15;5.77;;;4.33;;
64667;SDS011;51077;42.716;23.344;2023-06-14T13:32:41;7.43;;;3.97;;
64667;SDS011;51077;42.716;23.344;2023-06-14T13:35:07;6.50;;;4.53;;
64667;SDS011;51077;42.716;23.344;2023-06-14T13:37:32;5.13;;;4.33;;
64667;SDS011;51077;42.716;23.344;2023-06-14T13:39:58;5.70;;;4.70;;
64667;SDS011;51077;42.716;23.344;2023-06-14T13:42:23;5.53;;;4.17;;
64667;SDS011;51077;42.716;23.344;2023-06-14T13:44:51;5.68;;;4.18;;
64667;SDS011;51077;42.716;23.344;2023-06-14T13:47:17;5.28;;;3.75;;
64667;SDS011;51077;42.716;23.344;2023-06-14T13:49:42;5.10;;;3.70;;
64667;SDS011;51077;42.716;23.344;2023-06-14T13:52:08;8.77;;;4.47;;
64667;SDS011;51077;42.716;23.344;2023-06-14T13:54:34;5.27;;;4.33;;
64667;SDS011;51077;42.716;23.344;2023-06-14T13:56:59;6.33;;;4.70;;
64667;SDS011;51077;42.716;23.344;2023-06-14T13:59:24;6.30;;;4.77;;
64667;SDS011;51077;42.716;23.344;2023-06-14T14:01:50;6.40;;;4.47;;
64667;SDS011;51077;42.716;23.344;2023-06-14T14:04:16;7.00;;;4.53;;
64667;SDS011;51077;42.716;23.344;2023-06-14T14:06:41;5.50;;;4.13;;
64667;SDS011;51077;42.716;23.344;2023-06-14T14:09:07;7.30;;;5.20;;
64667;SDS011;51077;42.716;23.344;2023-06-14T14:11:34;7.13;;;4.43;;
64667;SDS011;51077;42.716;23.344;2023-06-14T14:13:59;6.57;;;4.77;;
64667;SDS011;51077;42.716;23.344;2023-06-14T14:16:24;6.43;;;4.90;;
64667;SDS011;51077;42.716;23.344;2023-06-14T14:18:50;7.18;;;5.25;;
64667;SDS011;51077;42.716;23.344;2023-06-14T14:21:16;6.47;;;5.13;;
64667;SDS011;51077;42.716;23.344;2023-06-14T14:23:41;10.10;;;5.53;;
64667;SDS011;51077;42.716;23.344;2023-06-14T14:26:07;10.93;;;5.60;;
64667;SDS011;51077;42.716;23.344;2023-06-14T14:28:32;13.27;;;5.63;;
64667;SDS011;51077;42.716;23.344;2023-06-14T14:30:58;6.67;;;5.33;;
64667;SDS011;51077;42.716;23.344;2023-06-14T14:33:24;10.68;;;5.13;;
64667;SDS011;51077;42.716;23.344;2023-06-14T14:35:50;8.03;;;5.00;;
64667;SDS011;51077;42.716;23.344;2023-06-14T14:38:15;7.80;;;5.17;;
64667;SDS011;51077;42.716;23.344;2023-06-14T14:40:41;8.63;;;5.60;;
64667;SDS011;51077;42.716;23.344;2023-06-14T14:43:08;9.98;;;4.97;;
64667;SDS011;51077;42.716;23.344;2023-06-14T14:45:34;11.10;;;6.67;;
64667;SDS011;51077;42.716;23.344;2023-06-14T14:48:00;8.20;;;5.13;;
64667;SDS011;51077;42.716;23.344;2023-06-14T14:50:25;7.32;;;4.10;;
64667;SDS011;51077;42.716;23.344;2023-06-14T14:52:51;6.80;;;4.47;;
64667;SDS011;51077;42.716;23.344;2023-06-14T14:55:16;7.13;;;4.00;;
64667;SDS011;51077;42.716;23.344;2023-06-14T14:57:42;8.97;;;4.33;;
64667;SDS011;51077;42.716;23.344;2023-06-14T15:00:08;8.88;;;4.00;;